Estación Meteorológica Peña el Pijo (Robertgarden) [ 10/16/18 02:59:25 CEST ]

Fecha Hora Presion(HPa) Temp (°C) Humedad % Rocio (°C) Viento ( m/s) Direccion Lluvia 1Hora(mm) Lluvia 24H(mm) LLuvia Total(mm)
2018-Feb-13 01:01:50 1008.900 -1.2 87 -3.1       5.18 81.84
2018-Feb-13 02:01:44 1009.300 -1.1 87 -3.0       5.18 81.84
2018-Feb-13 03:01:53 1008.900 -1.8 87 -3.7       5.18 81.84
2018-Feb-13 04:03:13 1008.600 -2.1 87 -4.0       5.18 81.84
2018-Feb-13 05:01:47 1008.600 -2.7 88 -4.4       5.18 81.84
2018-Feb-13 06:01:44 1008.200 -2.9 88 -4.6       5.18 81.84
2018-Feb-13 07:01:43 1008.100 -3.5 88 -5.2       5.18 81.84
2018-Feb-13 08:01:49 1008.800 -3.9 88 -5.6       5.18 81.84
2018-Feb-13 09:01:41 1009.000 -3.9 88 -5.6       5.18 81.84
2018-Feb-13 10:02:02 1009.000 2.3 91 0.9       5.18 81.84
2018-Feb-13 11:02:02 1009.000 6.0 79 2.6     0.51 5.69 82.36
2018-Feb-13 12:01:55 1009.000 7.9 58 0.1 4.1 NW   4.14 82.36
2018-Feb-13 13:01:46 1008.400 8.4 50 -1.4 1.9 NNW   4.14 82.36
2018-Feb-13 14:01:46 1007.400 9.3 46 -1.8       4.14 82.36
2018-Feb-13 15:01:33 1007.600 10.1 44 -1.7       2.59 82.36
2018-Feb-13 16:01:37 1007.000 10.3 43 -1.8 1.5 NW   1.55 82.36
2018-Feb-13 17:01:52 1006.800 8.8 44 -2.9 0.3 NW   0.51 82.36
2018-Feb-13 18:01:49 1007.100 7.4 47 -3.2 1.1 WNW   0.51 82.36
2018-Feb-13 19:01:42 1008.100 5.3 54 -3.3       0.51 82.36
2018-Feb-13 20:01:44 1008.200 3.8 59 -3.5       0.51 82.36
2018-Feb-13 21:01:42 1008.600 3.6 62 -3.0 1.3 WNW   0.51 82.36
2018-Feb-13 22:01:44 1008.700 3.6 63 -2.8       0.51 82.36
2018-Feb-13 23:01:49 1009.200 3.3 65 -2.7       0.51 82.36

Temperatura Máxima:10°    Temperatura Mínima:-3°
Presión Máxima:1009.300 Hpa    Presión Mínima:1006.800 Hpa


Volver